Time;durP1;ratioP1;P1;durP2;ratioP2;P2;SDS_P1;SDS_P2;PMS_P1;PMS_P2;Temp;Humidity;BMP_temperature;BMP_pressure;BME280_temperature;BME280_humidity;BME280_pressure;Samples;Min_cycle;Max_cycle;Signal;HPM_P1;HPM_P2
2021/04/25 19:06:36;;;;;;;6.60;1.70;;;;;;;14.32;31.51;100158.78;2239621;39;21035;-80
2021/04/25 19:08:09;;;;;;;5.18;1.77;;;;;;;14.27;31.53;100149.53;2219361;39;20178;-79
2021/04/25 19:09:41;;;;;;;4.82;1.60;;;;;;;14.19;31.57;100156.59;2209174;40;20165;-79
2021/04/25 19:11:13;;;;;;;5.65;1.98;;;;;;;14.12;31.73;100162.81;2211585;40;20511;-78
2021/04/25 19:12:46;;;;;;;10.27;2.30;;;;;;;14.09;31.53;100158.59;2212800;40;20637;-79
2021/04/25 19:14:17;;;;;;;6.95;2.25;;;;;;;14.04;31.87;100161.75;2211217;40;20037;-79
2021/04/25 19:15:50;;;;;;;7.95;2.05;;;;;;;13.92;32.03;100162.25;2210360;40;20042;-78
2021/04/25 19:17:21;;;;;;;5.20;1.88;;;;;;;13.85;32.00;100170.09;2203805;40;20058;-80
2021/04/25 19:18:53;;;;;;;6.05;1.85;;;;;;;13.78;31.90;100169.94;2203470;40;20047;-80
2021/04/25 19:20:26;;;;;;;4.68;1.77;;;;;;;13.76;32.23;100174.63;2205866;40;20472;-78
2021/04/25 19:21:58;;;;;;;5.18;1.85;;;;;;;13.74;32.35;100173.94;2209201;40;20042;-80
2021/04/25 19:23:30;;;;;;;6.90;2.58;;;;;;;13.73;32.21;100172.25;2207970;40;20050;-79
2021/04/25 19:25:03;;;;;;;5.80;2.38;;;;;;;13.69;32.22;100168.22;2209655;40;20099;-81
2021/04/25 19:26:35;;;;;;;9.43;3.00;;;;;;;13.63;32.20;100176.91;2208772;40;20058;-79
2021/04/25 19:28:08;;;;;;;5.53;2.08;;;;;;;13.56;32.05;100177.56;2209939;40;20062;-79
2021/04/25 19:29:38;;;;;;;5.18;2.10;;;;;;;13.52;32.25;100189.63;2202664;40;20345;-80
2021/04/25 19:31:13;;;;;;;4.85;1.63;;;;;;;13.49;32.21;100191.78;2203397;40;20055;-79
2021/04/25 19:32:47;;;;;;;6.38;2.03;;;;;;;13.47;32.30;100193.78;2208721;40;20038;-79
2021/04/25 19:34:19;;;;;;;6.05;1.90;;;;;;;13.42;32.00;100194.28;2201900;40;20038;-80
2021/04/25 19:35:50;;;;;;;5.75;1.90;;;;;;;13.36;32.05;100193.06;2203678;40;20043;-79
2021/04/25 19:37:22;;;;;;;5.50;1.90;;;;;;;13.30;32.04;100198.22;2202007;40;20035;-79
2021/04/25 19:38:54;;;;;;;8.48;2.95;;;;;;;13.24;32.10;100199.69;2209909;40;20084;-80
2021/04/25 19:40:27;;;;;;;4.95;1.90;;;;;;;13.22;31.87;100205.22;2208510;40;20030;-79
2021/04/25 19:41:59;;;;;;;5.35;1.95;;;;;;;13.17;31.77;100214.75;2210631;40;20046;-80
2021/04/25 19:43:31;;;;;;;5.90;2.03;;;;;;;13.09;31.88;100204.78;2209632;40;20037;-80
2021/04/25 19:45:06;;;;;;;6.72;2.00;;;;;;;13.08;31.65;100203.09;2209818;40;20042;-80
2021/04/25 19:46:38;;;;;;;6.22;1.60;;;;;;;13.12;31.35;100204.50;2201347;40;20047;-79
2021/04/25 19:48:12;;;;;;;5.63;1.75;;;;;;;13.09;31.15;100202.09;2199234;40;20028;-80
2021/04/25 19:49:44;;;;;;;6.43;1.60;;;;;;;13.06;31.07;100202.41;2200010;40;20594;-80
2021/04/25 19:51:18;;;;;;;6.88;1.85;;;;;;;13.03;31.09;100211.63;2204558;40;20037;-79
2021/04/25 19:52:50;;;;;;;6.68;1.50;;;;;;;13.05;31.14;100211.47;2202516;40;20054;-81
2021/04/25 19:54:23;;;;;;;3.75;1.42;;;;;;;13.01;31.27;100218.16;2204392;40;20132;-79
2021/04/25 19:55:57;;;;;;;6.50;1.90;;;;;;;13.01;31.17;100212.78;2203069;40;20047;-79
2021/04/25 19:57:29;;;;;;;4.82;1.73;;;;;;;13.04;31.11;100209.78;2212636;40;20030;-80
2021/04/25 19:59:00;;;;;;;6.03;1.33;;;;;;;13.01;31.22;100202.06;2212069;40;20050;-80
2021/04/25 20:00:35;;;;;;;10.35;1.90;;;;;;;12.92;31.38;100199.31;2214600;40;20037;-79
2021/04/25 20:02:07;;;;;;;5.15;1.63;;;;;;;12.86;31.49;100210.66;2212981;40;20053;-79
2021/04/25 20:03:42;;;;;;;6.50;1.52;;;;;;;12.83;31.55;100212.81;2214459;40;20030;-79
2021/04/25 20:05:14;;;;;;;10.57;2.17;;;;;;;12.83;31.44;100216.34;2210904;40;20042;-79
2021/04/25 20:06:47;;;;;;;7.05;1.90;;;;;;;12.75;31.54;100208.25;2220504;40;20037;-79
2021/04/25 20:08:23;;;;;;;7.75;1.75;;;;;;;12.63;31.82;100219.19;2216526;40;20096;-79
2021/04/25 20:09:54;;;;;;;8.10;1.85;;;;;;;12.64;31.87;100220.88;2219968;40;20046;-79
2021/04/25 20:11:26;;;;;;;7.95;1.58;;;;;;;12.60;31.56;100224.88;2215851;40;20018;-78
2021/04/25 20:12:57;;;;;;;8.98;1.75;;;;;;;12.55;31.83;100229.00;2217860;40;20470;-79
2021/04/25 20:14:28;;;;;;;6.53;1.50;;;;;;;12.47;31.70;100227.94;2199338;40;20041;-78
2021/04/25 20:16:00;;;;;;;5.95;1.40;;;;;;;12.41;31.80;100233.06;2214862;40;20037;-79
2021/04/25 20:17:31;;;;;;;5.80;1.60;;;;;;;12.37;31.74;100231.69;2211292;40;20049;-81
2021/04/25 20:19:04;;;;;;;11.13;3.42;;;;;;;12.36;31.47;100227.31;2211479;40;20037;-80
2021/04/25 20:20:38;;;;;;;9.13;2.40;;;;;;;12.31;31.43;100230.47;2209727;40;20322;-81
2021/04/25 20:22:09;;;;;;;5.10;1.40;;;;;;;12.29;31.63;100230.59;2211678;40;20034;-79
2021/04/25 20:23:42;;;;;;;8.70;1.63;;;;;;;12.23;31.45;100225.00;2210130;40;20092;-80
2021/04/25 20:25:14;;;;;;;5.88;1.60;;;;;;;12.21;31.50;100227.81;2212640;40;20041;-81
2021/04/25 20:26:46;;;;;;;5.13;1.50;;;;;;;12.13;31.54;100225.06;2208927;40;20042;-80
2021/04/25 20:28:17;;;;;;;9.50;2.13;;;;;;;12.07;31.94;100231.84;2212952;40;20038;-81
2021/04/25 20:29:49;;;;;;;7.15;1.60;;;;;;;12.04;31.72;100236.69;2212625;40;20481;-79
2021/04/25 20:31:20;;;;;;;5.57;1.58;;;;;;;11.98;31.59;100238.97;2210022;40;20030;-78
2021/04/25 20:32:51;;;;;;;4.93;1.65;;;;;;;11.89;31.91;100239.84;2213265;40;20033;-79
2021/04/25 20:34:22;;;;;;;5.72;1.55;;;;;;;11.86;31.94;100246.31;2212313;40;20030;-78
2021/04/25 20:35:54;;;;;;;4.60;1.67;;;;;;;11.83;31.96;100240.41;2211342;40;20110;-79
2021/04/25 20:37:26;;;;;;;5.15;1.50;;;;;;;11.81;32.01;100248.59;2209424;40;20417;-79
2021/04/25 20:38:58;;;;;;;7.68;2.00;;;;;;;11.79;31.70;100244.41;2211553;40;20037;-78
2021/04/25 20:40:31;;;;;;;6.05;1.40;;;;;;;11.67;31.98;100239.22;2210090;40;20026;-80
2021/04/25 20:42:03;;;;;;;4.70;1.40;;;;;;;11.67;31.87;100241.91;2211255;40;20038;-78
2021/04/25 20:43:34;;;;;;;6.68;2.10;;;;;;;11.64;31.92;100242.19;2210383;40;20470;-80
2021/04/25 20:45:06;;;;;;;6.20;1.60;;;;;;;11.55;32.17;100248.41;2211336;40;20678;-79
2021/04/25 20:46:38;;;;;;;5.80;1.77;;;;;;;11.55;32.18;100237.72;2210726;40;20524;-79
2021/04/25 20:48:10;;;;;;;5.25;1.65;;;;;;;11.45;32.37;100232.41;2211718;40;20030;-79
2021/04/25 20:49:41;;;;;;;7.28;1.75;;;;;;;11.42;32.31;100247.91;2193055;40;20040;-79
2021/04/25 20:51:14;;;;;;;5.85;1.40;;;;;;;11.36;32.40;100242.13;2189390;40;20117;-79
2021/04/25 20:52:44;;;;;;;6.88;1.40;;;;;;;11.31;32.32;100251.59;2190498;40;20051;-79
2021/04/25 20:54:17;;;;;;;4.85;1.50;;;;;;;11.32;32.51;100254.13;2208959;40;20041;-79
2021/04/25 20:55:48;;;;;;;4.22;1.42;;;;;;;11.29;32.43;100242.88;2210312;40;20061;-78
2021/04/25 20:57:20;;;;;;;5.18;1.35;;;;;;;11.19;32.73;100238.38;2212095;40;20026;-81
2021/04/25 20:58:52;;;;;;;4.97;1.33;;;;;;;11.15;33.01;100246.81;2210709;40;20413;-79
2021/04/25 21:00:25;;;;;;;6.70;1.40;;;;;;;11.16;32.76;100241.34;2210955;40;20100;-80
2021/04/25 21:01:57;;;;;;;5.00;1.60;;;;;;;11.08;33.01;100242.06;2208138;40;20142;-79
2021/04/25 21:03:28;;;;;;;4.13;1.40;;;;;;;11.07;33.09;100244.88;2211124;40;20031;-79
2021/04/25 21:05:00;;;;;;;3.90;1.33;;;;;;;10.97;33.29;100244.88;2210087;40;20069;-79
2021/04/25 21:06:31;;;;;;;4.63;1.50;;;;;;;11.00;33.27;100243.78;2211219;40;20453;-79
2021/04/25 21:08:03;;;;;;;4.90;1.40;;;;;;;11.01;33.15;100243.63;2210114;40;20413;-78
2021/04/25 21:09:34;;;;;;;5.00;1.45;;;;;;;10.97;33.28;100234.19;2211561;40;20093;-80
2021/04/25 21:11:06;;;;;;;9.00;2.00;;;;;;;10.88;33.42;100240.38;2209874;40;20058;-79
2021/04/25 21:12:37;;;;;;;8.43;2.25;;;;;;;10.88;33.54;100240.38;2211651;40;20033;-78
2021/04/25 21:14:08;;;;;;;7.40;2.22;;;;;;;10.86;33.55;100234.38;2210117;40;20475;-79
2021/04/25 21:15:40;;;;;;;3.70;1.42;;;;;;;10.76;33.91;100237.88;2210930;40;20034;-78
2021/04/25 21:17:12;;;;;;;5.88;1.75;;;;;;;10.76;33.98;100237.03;2210456;40;20049;-80
2021/04/25 21:18:43;;;;;;;3.38;1.48;;;;;;;10.79;33.87;100222.53;2211447;40;20041;-79
2021/04/25 21:20:16;;;;;;;9.90;2.08;;;;;;;10.74;34.01;100217.59;2210292;40;20727;-79
2021/04/25 21:21:48;;;;;;;5.50;1.50;;;;;;;10.61;34.41;100221.41;2209664;40;20034;-80
2021/04/25 21:23:20;;;;;;;4.57;1.40;;;;;;;10.59;34.34;100222.53;2210769;40;20049;-79
2021/04/25 21:24:51;;;;;;;6.15;1.65;;;;;;;10.49;34.58;100224.34;2210756;40;20026;-79
2021/04/25 21:26:23;;;;;;;4.97;1.60;;;;;;;10.50;34.76;100218.03;2210256;40;20048;-79
2021/04/25 21:27:54;;;;;;;7.45;2.15;;;;;;;10.45;34.78;100211.28;2212644;40;20049;-79
2021/04/25 21:29:25;;;;;;;7.70;1.67;;;;;;;10.42;34.84;100208.06;2209839;40;20062;-79
2021/04/25 21:30:56;;;;;;;5.80;1.40;;;;;;;10.36;35.04;100204.06;2211253;40;20112;-78
2021/04/25 21:32:27;;;;;;;5.25;1.20;;;;;;;10.36;35.00;100198.72;2210885;40;20042;-80
2021/04/25 21:33:58;;;;;;;5.78;1.63;;;;;;;10.27;35.24;100204.91;2212069;40;20041;-80
2021/04/25 21:35:30;;;;;;;9.02;2.03;;;;;;;10.23;35.44;100199.00;2211204;40;20054;-79
2021/04/25 21:37:02;;;;;;;5.65;1.98;;;;;;;10.17;35.42;100214.72;2211450;40;20041;-79
2021/04/25 21:38:35;;;;;;;4.50;1.23;;;;;;;10.15;35.62;100205.03;2210750;40;20467;-78
2021/04/25 21:40:10;;;;;;;6.95;1.58;;;;;;;10.09;35.60;100205.59;2210456;40;20026;-79
2021/04/25 21:41:41;;;;;;;4.40;1.40;;;;;;;10.09;35.62;100207.41;2211093;40;20066;-79
2021/04/25 21:43:13;;;;;;;5.53;1.60;;;;;;;10.11;35.50;100203.59;2212375;40;20037;-79
2021/04/25 21:44:44;;;;;;;8.05;2.15;;;;;;;10.09;35.69;100205.59;2213557;40;20045;-80
2021/04/25 21:46:15;;;;;;;6.75;1.70;;;;;;;10.01;36.01;100205.44;2215122;40;20387;-79
2021/04/25 21:47:47;;;;;;;7.13;1.80;;;;;;;9.94;36.00;100204.28;2211230;40;20037;-79
2021/04/25 21:49:18;;;;;;;4.55;1.30;;;;;;;9.89;36.13;100206.53;2210979;40;20329;-78
2021/04/25 21:50:51;;;;;;;4.63;1.40;;;;;;;9.91;36.08;100209.91;2210337;40;20112;-79
2021/04/25 21:52:22;;;;;;;9.15;1.60;;;;;;;9.84;36.31;100207.75;2208133;40;20158;-79
2021/04/25 21:53:54;;;;;;;7.50;1.80;;;;;;;9.82;36.42;100199.03;2205176;40;20065;-79
2021/04/25 21:55:27;;;;;;;6.25;1.67;;;;;;;9.78;36.33;100204.78;2204910;40;20042;-78
2021/04/25 21:56:58;;;;;;;5.50;1.55;;;;;;;9.76;36.44;100198.75;2217128;40;20033;-79
2021/04/25 21:58:29;;;;;;;4.55;1.52;;;;;;;9.83;35.99;100207.91;2215526;40;20053;-78
2021/04/25 22:00:00;;;;;;;6.20;1.90;;;;;;;9.77;36.47;100203.94;2218033;40;20468;-79
2021/04/25 22:01:32;;;;;;;8.18;2.25;;;;;;;9.69;36.62;100201.13;2215480;40;20030;-79
2021/04/25 22:03:04;;;;;;;5.82;1.70;;;;;;;9.73;36.56;100202.53;2217785;40;20764;-79
2021/04/25 22:04:36;;;;;;;7.43;1.50;;;;;;;9.68;36.70;100210.09;2216066;40;27097;-78
2021/04/25 22:06:08;;;;;;;7.10;1.58;;;;;;;9.68;36.70;100202.94;2217115;40;20049;-79
2021/04/25 22:07:39;;;;;;;9.13;2.90;;;;;;;9.67;36.72;100209.28;2216634;39;20453;-79
2021/04/25 22:09:10;;;;;;;6.18;2.08;;;;;;;9.65;36.80;100205.88;2216285;40;20053;-78
2021/04/25 22:10:45;;;;;;;4.55;1.90;;;;;;;9.64;36.88;100203.34;2215444;40;20052;-79
2021/04/25 22:12:16;;;;;;;6.45;1.55;;;;;;;9.64;36.91;100209.53;2213814;40;20021;-79
2021/04/25 22:13:48;;;;;;;6.30;2.00;;;;;;;9.59;37.07;100216.25;2215632;39;20053;-79
2021/04/25 22:15:20;;;;;;;4.25;1.70;;;;;;;9.50;37.21;100223.22;2216337;40;20536;-79
2021/04/25 22:16:51;;;;;;;7.53;1.60;;;;;;;9.47;37.39;100220.84;2215368;40;20127;-78
2021/04/25 22:18:23;;;;;;;6.50;1.48;;;;;;;9.36;37.61;100219.94;2217945;40;20045;-78
2021/04/25 22:19:53;;;;;;;5.43;1.55;;;;;;;9.35;37.51;100236.09;2215496;40;20417;-78
2021/04/25 22:21:25;;;;;;;7.28;1.52;;;;;;;9.37;37.41;100220.78;2216988;40;20042;-78
2021/04/25 22:22:57;;;;;;;3.70;1.45;;;;;;;9.34;37.71;100232.56;2215176;40;20384;-78
2021/04/25 22:24:28;;;;;;;4.78;1.70;;;;;;;9.26;37.88;100228.88;2218060;40;20413;-77
2021/04/25 22:26:00;;;;;;;6.57;2.20;;;;;;;9.25;38.00;100236.03;2216157;40;20088;-78
2021/04/25 22:27:32;;;;;;;5.68;1.60;;;;;;;9.26;37.98;100232.38;2216612;40;20339;-79
2021/04/25 22:29:03;;;;;;;4.90;1.45;;;;;;;9.30;37.84;100232.97;2215152;40;20053;-79
2021/04/25 22:30:37;;;;;;;4.85;1.80;;;;;;;9.32;37.66;100223.00;2216611;40;20440;-79
2021/04/25 22:32:08;;;;;;;4.80;1.45;;;;;;;9.30;37.68;100231.16;2215292;40;20357;-79
2021/04/25 22:33:39;;;;;;;5.22;1.55;;;;;;;9.24;37.92;100222.84;2218743;40;20103;-78
2021/04/25 22:35:15;;;;;;;5.25;1.65;;;;;;;9.19;38.15;100232.06;2221259;40;20294;-78
2021/04/25 22:36:46;;;;;;;6.32;1.73;;;;;;;9.15;38.28;100227.97;2216913;40;20037;-78
2021/04/25 22:38:18;;;;;;;4.53;1.33;;;;;;;9.19;38.10;100220.56;2214556;40;20635;-78
2021/04/25 22:39:49;;;;;;;4.75;1.50;;;;;;;9.23;37.99;100229.97;2214364;40;20388;-79
2021/04/25 22:41:21;;;;;;;5.50;1.75;;;;;;;9.24;38.25;100217.50;2201365;40;20041;-79
2021/04/25 22:42:54;;;;;;;5.25;2.00;;;;;;;9.24;38.12;100214.81;2219140;40;20402;-79
2021/04/25 22:44:25;;;;;;;4.68;1.48;;;;;;;9.20;38.31;100217.75;2212677;40;20049;-79
2021/04/25 22:45:57;;;;;;;8.25;1.92;;;;;;;9.10;38.32;100214.19;2215250;40;20052;-78
2021/04/25 22:47:28;;;;;;;3.90;1.48;;;;;;;9.02;38.74;100217.50;2216462;40;20042;-79
2021/04/25 22:48:59;;;;;;;5.03;1.63;;;;;;;8.97;38.67;100216.22;2219535;40;20102;-79
2021/04/25 22:50:31;;;;;;;5.63;1.50;;;;;;;8.94;38.74;100211.13;2219738;40;20046;-80
2021/04/25 22:52:02;;;;;;;5.80;1.60;;;;;;;8.90;38.91;100211.38;2221652;40;20029;-80
2021/04/25 22:53:33;;;;;;;6.68;1.63;;;;;;;8.90;38.91;100213.22;2218052;40;20057;-78
2021/04/25 22:55:06;;;;;;;4.88;1.60;;;;;;;8.87;39.03;100211.66;2216436;40;20022;-79
2021/04/25 22:56:38;;;;;;;4.70;1.55;;;;;;;8.83;39.04;100210.22;2214821;40;20053;-79
2021/04/25 22:58:10;;;;;;;9.63;1.88;;;;;;;8.81;39.23;100214.81;2216442;40;20033;-78
2021/04/25 22:59:41;;;;;;;6.07;1.48;;;;;;;8.79;39.44;100207.94;2210443;40;20045;-80
2021/04/25 23:01:12;;;;;;;7.93;1.60;;;;;;;8.79;39.42;100222.09;2211461;40;20046;-77
2021/04/25 23:02:45;;;;;;;5.60;1.50;;;;;;;8.79;39.13;100210.59;2215588;40;20041;-79
2021/04/25 23:04:16;;;;;;;8.45;2.83;;;;;;;8.79;39.21;100210.59;2215427;39;20042;-79
2021/04/25 23:05:48;;;;;;;5.10;1.45;;;;;;;8.76;39.39;100214.38;2214963;40;20293;-78
2021/04/25 23:07:19;;;;;;;7.72;1.60;;;;;;;8.72;39.29;100221.78;2214948;40;20054;-78
2021/04/25 23:08:51;;;;;;;5.07;1.85;;;;;;;8.70;39.51;100212.22;2215995;40;20058;-78
2021/04/25 23:10:23;;;;;;;5.28;1.50;;;;;;;8.67;39.38;100215.97;2216634;40;20092;-78
2021/04/25 23:11:55;;;;;;;4.25;1.60;;;;;;;8.71;39.46;100213.91;2155891;40;20051;-78
2021/04/25 23:13:26;;;;;;;4.43;1.58;;;;;;;8.74;39.17;100217.16;2207483;40;20545;-78
2021/04/25 23:14:57;;;;;;;7.70;2.20;;;;;;;8.75;39.44;100223.34;2216234;40;20046;-77
2021/04/25 23:16:28;;;;;;;8.43;1.95;;;;;;;8.68;39.60;100219.50;2213454;40;20539;-78
2021/04/25 23:17:59;;;;;;;6.95;1.77;;;;;;;8.64;39.62;100231.38;2216323;40;20301;-78
2021/04/25 23:19:31;;;;;;;7.07;1.65;;;;;;;8.61;39.61;100228.97;2202724;40;20045;-78
2021/04/25 23:21:02;;;;;;;6.38;1.90;;;;;;;8.59;39.82;100223.78;2185829;40;20416;-78
2021/04/25 23:22:33;;;;;;;8.23;2.33;;;;;;;8.55;40.08;100227.66;2214952;40;20061;-79
2021/04/25 23:24:06;;;;;;;5.10;1.80;;;;;;;8.52;39.91;100234.09;2201996;40;20045;-78
2021/04/25 23:25:38;;;;;;;6.10;2.10;;;;;;;8.57;40.04;100231.91;2187283;40;20045;-78
2021/04/25 23:27:11;;;;;;;12.00;2.05;;;;;;;8.53;40.07;100230.47;2209284;40;20583;-78
2021/04/25 23:28:43;;;;;;;8.10;2.17;;;;;;;8.49;40.12;100234.38;2214398;40;20061;-77
2021/04/25 23:30:17;;;;;;;5.75;2.08;;;;;;;8.52;39.96;100234.09;2214502;40;20040;-78
2021/04/25 23:31:48;;;;;;;6.07;1.50;;;;;;;8.57;39.75;100242.56;2178394;40;21060;-78
2021/04/25 23:33:19;;;;;;;5.03;1.67;;;;;;;8.64;39.51;100237.59;2219019;40;20029;-78
2021/04/25 23:34:51;;;;;;;5.70;1.73;;;;;;;8.72;39.49;100236.94;2174120;40;20060;-78
2021/04/25 23:36:22;;;;;;;4.13;1.17;;;;;;;8.78;39.46;100235.56;2215753;40;20414;-78
2021/04/25 23:37:53;;;;;;;4.03;1.30;;;;;;;8.82;39.41;100240.50;2188684;40;20701;-78
2021/04/25 23:39:24;;;;;;;8.30;1.52;;;;;;;8.84;39.48;100243.03;2208460;40;20326;-78
2021/04/25 23:40:56;;;;;;;4.03;1.20;;;;;;;8.84;39.28;100241.25;2212855;40;20030;-78
2021/04/25 23:42:27;;;;;;;5.47;1.48;;;;;;;8.83;39.67;100239.53;2214328;40;20038;-78
2021/04/25 23:43:58;;;;;;;7.28;1.88;;;;;;;8.83;39.66;100239.53;2212000;40;20034;-79
2021/04/25 23:45:30;;;;;;;4.47;1.60;;;;;;;8.82;39.82;100239.69;2212775;40;20046;-78
2021/04/25 23:47:01;;;;;;;6.72;2.10;;;;;;;8.80;39.80;100233.63;2198574;40;20056;-79
2021/04/25 23:48:32;;;;;;;5.40;1.60;;;;;;;8.69;40.03;100240.69;2211862;40;20033;-78
2021/04/25 23:50:04;;;;;;;6.13;1.70;;;;;;;8.66;40.27;100235.63;2214987;40;20103;-78
2021/04/25 23:51:35;;;;;;;5.05;1.60;;;;;;;8.69;40.06;100237.19;2216119;40;20042;-78
2021/04/25 23:53:06;;;;;;;6.43;1.77;;;;;;;8.71;40.41;100237.91;2216421;40;20034;-78
2021/04/25 23:54:38;;;;;;;5.63;2.03;;;;;;;8.71;40.19;100233.44;2217163;40;20331;-78
2021/04/25 23:56:09;;;;;;;5.03;1.10;;;;;;;8.73;40.12;100231.50;2208084;39;20313;-78
2021/04/25 23:57:42;;;;;;;4.18;1.58;;;;;;;8.71;40.31;100232.56;2215733;40;20092;-78
2021/04/25 23:59:13;;;;;;;6.63;1.88;;;;;;;8.70;40.26;100236.19;2214953;40;20087;-78
